sensor_id;sensor_type;location;lat;lon;timestamp;temperature;humidity
66726;HTU21D;53638;51.062;5.804;2022-11-23T00:00:57;9.95;118.99
66726;HTU21D;53638;51.062;5.804;2022-11-23T00:03:23;9.95;118.99
66726;HTU21D;53638;51.062;5.804;2022-11-23T00:05:49;9.97;118.99
66726;HTU21D;53638;51.062;5.804;2022-11-23T00:08:15;9.97;118.99
66726;HTU21D;53638;51.062;5.804;2022-11-23T00:10:41;10.03;118.99
66726;HTU21D;53638;51.062;5.804;2022-11-23T00:13:06;10.03;118.99
66726;HTU21D;53638;51.062;5.804;2022-11-23T00:15:32;9.99;118.99
66726;HTU21D;53638;51.062;5.804;2022-11-23T00:17:59;10.03;118.99
66726;HTU21D;53638;51.062;5.804;2022-11-23T00:20:25;10.04;118.99
66726;HTU21D;53638;51.062;5.804;2022-11-23T00:22:51;10.03;118.99
66726;HTU21D;53638;51.062;5.804;2022-11-23T00:25:17;10.01;118.99
66726;HTU21D;53638;51.062;5.804;2022-11-23T00:27:43;9.97;118.99
66726;HTU21D;53638;51.062;5.804;2022-11-23T00:30:09;9.92;118.99
66726;HTU21D;53638;51.062;5.804;2022-11-23T00:32:35;9.88;118.99
66726;HTU21D;53638;51.062;5.804;2022-11-23T00:35:01;9.81;118.99
66726;HTU21D;53638;51.062;5.804;2022-11-23T00:37:27;9.78;118.99
66726;HTU21D;53638;51.062;5.804;2022-11-23T00:39:53;9.74;118.99
66726;HTU21D;53638;51.062;5.804;2022-11-23T00:42:19;9.68;118.99
66726;HTU21D;53638;51.062;5.804;2022-11-23T00:44:45;9.65;118.99
66726;HTU21D;53638;51.062;5.804;2022-11-23T00:47:11;9.68;118.99
66726;HTU21D;53638;51.062;5.804;2022-11-23T00:49:37;9.71;118.99
66726;HTU21D;53638;51.062;5.804;2022-11-23T00:52:03;9.72;118.99
66726;HTU21D;53638;51.062;5.804;2022-11-23T00:54:29;9.71;118.99
66726;HTU21D;53638;51.062;5.804;2022-11-23T00:56:54;9.74;118.99
66726;HTU21D;53638;51.062;5.804;2022-11-23T00:59:21;9.76;118.99
66726;HTU21D;53638;51.062;5.804;2022-11-23T01:01:48;9.79;118.99
66726;HTU21D;53638;51.062;5.804;2022-11-23T01:04:14;9.79;118.99
66726;HTU21D;53638;51.062;5.804;2022-11-23T01:06:39;9.78;118.99
66726;HTU21D;53638;51.062;5.804;2022-11-23T01:09:11;9.77;118.99
66726;HTU21D;53638;51.062;5.804;2022-11-23T01:11:38;9.79;118.99
66726;HTU21D;53638;51.062;5.804;2022-11-23T01:14:04;9.79;118.99
66726;HTU21D;53638;51.062;5.804;2022-11-23T01:16:33;9.78;118.99
66726;HTU21D;53638;51.062;5.804;2022-11-23T01:19:03;9.82;118.99
66726;HTU21D;53638;51.062;5.804;2022-11-23T01:21:29;9.82;118.99
66726;HTU21D;53638;51.062;5.804;2022-11-23T01:23:57;9.84;118.99
66726;HTU21D;53638;51.062;5.804;2022-11-23T01:26:24;9.85;118.99
66726;HTU21D;53638;51.062;5.804;2022-11-23T01:28:50;9.82;118.99
66726;HTU21D;53638;51.062;5.804;2022-11-23T01:31:19;9.78;118.99
66726;HTU21D;53638;51.062;5.804;2022-11-23T01:33:50;9.79;118.99
66726;HTU21D;53638;51.062;5.804;2022-11-23T01:36:22;9.82;118.99
66726;HTU21D;53638;51.062;5.804;2022-11-23T01:38:49;9.86;118.99
66726;HTU21D;53638;51.062;5.804;2022-11-23T01:41:21;9.84;118.99
66726;HTU21D;53638;51.062;5.804;2022-11-23T01:43:47;9.88;118.99
66726;HTU21D;53638;51.062;5.804;2022-11-23T01:46:13;9.83;118.99
66726;HTU21D;53638;51.062;5.804;2022-11-23T01:51:19;9.93;118.99
66726;HTU21D;53638;51.062;5.804;2022-11-23T01:53:48;9.95;118.99
66726;HTU21D;53638;51.062;5.804;2022-11-23T01:56:19;9.95;118.99
66726;HTU21D;53638;51.062;5.804;2022-11-23T01:58:52;9.95;118.99
66726;HTU21D;53638;51.062;5.804;2022-11-23T02:01:19;9.98;118.99
66726;HTU21D;53638;51.062;5.804;2022-11-23T02:03:47;10.00;118.99
66726;HTU21D;53638;51.062;5.804;2022-11-23T02:06:16;10.03;118.99
66726;HTU21D;53638;51.062;5.804;2022-11-23T02:08:43;10.01;118.99
66726;HTU21D;53638;51.062;5.804;2022-11-23T02:11:12;9.95;118.99
66726;HTU21D;53638;51.062;5.804;2022-11-23T02:13:38;9.95;118.99
66726;HTU21D;53638;51.062;5.804;2022-11-23T02:16:07;9.97;118.99
66726;HTU21D;53638;51.062;5.804;2022-11-23T02:18:35;9.97;118.99
66726;HTU21D;53638;51.062;5.804;2022-11-23T02:21:03;9.93;118.99
66726;HTU21D;53638;51.062;5.804;2022-11-23T02:26:24;9.91;118.99
66726;HTU21D;53638;51.062;5.804;2022-11-23T02:29:04;9.93;118.99
66726;HTU21D;53638;51.062;5.804;2022-11-23T02:31:31;9.92;118.99
66726;HTU21D;53638;51.062;5.804;2022-11-23T02:33:57;9.89;118.99
66726;HTU21D;53638;51.062;5.804;2022-11-23T02:39:20;9.90;118.99
66726;HTU21D;53638;51.062;5.804;2022-11-23T02:41:49;9.89;118.99
66726;HTU21D;53638;51.062;5.804;2022-11-23T02:46:49;9.90;118.99
66726;HTU21D;53638;51.062;5.804;2022-11-23T02:49:15;9.89;118.99
66726;HTU21D;53638;51.062;5.804;2022-11-23T02:51:42;9.90;118.99
66726;HTU21D;53638;51.062;5.804;2022-11-23T02:54:10;9.91;118.99
66726;HTU21D;53638;51.062;5.804;2022-11-23T02:56:38;9.89;118.99
66726;HTU21D;53638;51.062;5.804;2022-11-23T02:59:03;9.91;118.99
66726;HTU21D;53638;51.062;5.804;2022-11-23T03:01:29;9.93;118.99
66726;HTU21D;53638;51.062;5.804;2022-11-23T03:03:55;9.92;118.99
66726;HTU21D;53638;51.062;5.804;2022-11-23T03:06:21;9.93;118.99
66726;HTU21D;53638;51.062;5.804;2022-11-23T03:08:47;9.96;118.99
66726;HTU21D;53638;51.062;5.804;2022-11-23T03:11:15;9.96;118.99
66726;HTU21D;53638;51.062;5.804;2022-11-23T03:13:42;10.03;118.99
66726;HTU21D;53638;51.062;5.804;2022-11-23T03:16:08;9.98;118.99
66726;HTU21D;53638;51.062;5.804;2022-11-23T03:18:34;9.98;118.99
66726;HTU21D;53638;51.062;5.804;2022-11-23T03:21:03;9.97;118.99
66726;HTU21D;53638;51.062;5.804;2022-11-23T03:23:31;9.97;118.99
66726;HTU21D;53638;51.062;5.804;2022-11-23T03:25:59;9.96;118.99
66726;HTU21D;53638;51.062;5.804;2022-11-23T03:28:31;9.99;118.99
66726;HTU21D;53638;51.062;5.804;2022-11-23T03:30:56;9.98;118.99
66726;HTU21D;53638;51.062;5.804;2022-11-23T03:33:22;9.96;118.99
66726;HTU21D;53638;51.062;5.804;2022-11-23T03:35:48;9.93;118.99
66726;HTU21D;53638;51.062;5.804;2022-11-23T03:38:18;9.92;118.99
66726;HTU21D;53638;51.062;5.804;2022-11-23T03:40:45;9.90;118.99
66726;HTU21D;53638;51.062;5.804;2022-11-23T03:43:15;9.90;118.99
66726;HTU21D;53638;51.062;5.804;2022-11-23T03:45:41;9.90;118.99
66726;HTU21D;53638;51.062;5.804;2022-11-23T03:48:07;9.91;118.99
66726;HTU21D;53638;51.062;5.804;2022-11-23T03:50:33;9.91;118.99
66726;HTU21D;53638;51.062;5.804;2022-11-23T03:52:59;9.93;118.99
66726;HTU21D;53638;51.062;5.804;2022-11-23T03:55:26;9.94;118.99
66726;HTU21D;53638;51.062;5.804;2022-11-23T03:57:52;9.93;118.99
66726;HTU21D;53638;51.062;5.804;2022-11-23T04:00:20;9.94;118.99
66726;HTU21D;53638;51.062;5.804;2022-11-23T04:02:46;9.93;118.99
66726;HTU21D;53638;51.062;5.804;2022-11-23T04:05:32;9.93;118.99
66726;HTU21D;53638;51.062;5.804;2022-11-23T04:08:22;9.92;118.99
66726;HTU21D;53638;51.062;5.804;2022-11-23T04:10:49;9.93;118.99
66726;HTU21D;53638;51.062;5.804;2022-11-23T04:13:20;9.90;118.99
66726;HTU21D;53638;51.062;5.804;2022-11-23T04:15:46;9.90;118.99
66726;HTU21D;53638;51.062;5.804;2022-11-23T04:18:12;9.92;118.99
66726;HTU21D;53638;51.062;5.804;2022-11-23T04:20:38;9.92;118.99
66726;HTU21D;53638;51.062;5.804;2022-11-23T04:23:04;9.90;118.99
66726;HTU21D;53638;51.062;5.804;2022-11-23T04:25:30;9.89;118.99
66726;HTU21D;53638;51.062;5.804;2022-11-23T04:27:57;9.85;118.99
66726;HTU21D;53638;51.062;5.804;2022-11-23T04:30:23;9.84;118.99
66726;HTU21D;53638;51.062;5.804;2022-11-23T04:32:51;9.85;118.99
66726;HTU21D;53638;51.062;5.804;2022-11-23T04:35:19;9.84;118.99
66726;HTU21D;53638;51.062;5.804;2022-11-23T04:37:48;9.88;118.99
66726;HTU21D;53638;51.062;5.804;2022-11-23T04:40:14;9.85;118.99
66726;HTU21D;53638;51.062;5.804;2022-11-23T04:42:46;9.84;118.99
66726;HTU21D;53638;51.062;5.804;2022-11-23T04:45:13;9.82;118.99
66726;HTU21D;53638;51.062;5.804;2022-11-23T04:47:38;9.81;118.99
66726;HTU21D;53638;51.062;5.804;2022-11-23T04:50:10;9.81;118.99
66726;HTU21D;53638;51.062;5.804;2022-11-23T04:52:35;9.79;118.99
66726;HTU21D;53638;51.062;5.804;2022-11-23T04:55:06;9.81;118.99
66726;HTU21D;53638;51.062;5.804;2022-11-23T04:57:35;9.76;118.99
66726;HTU21D;53638;51.062;5.804;2022-11-23T05:00:01;9.72;118.99
66726;HTU21D;53638;51.062;5.804;2022-11-23T05:02:28;9.68;118.99
66726;HTU21D;53638;51.062;5.804;2022-11-23T05:05:02;9.66;118.99
66726;HTU21D;53638;51.062;5.804;2022-11-23T05:07:30;9.64;118.99
66726;HTU21D;53638;51.062;5.804;2022-11-23T05:09:59;9.64;118.99
66726;HTU21D;53638;51.062;5.804;2022-11-23T05:12:25;9.61;118.99
66726;HTU21D;53638;51.062;5.804;2022-11-23T05:14:51;9.59;118.99
66726;HTU21D;53638;51.062;5.804;2022-11-23T05:17:22;9.60;118.99
66726;HTU21D;53638;51.062;5.804;2022-11-23T05:19:50;9.57;118.99
66726;HTU21D;53638;51.062;5.804;2022-11-23T05:22:16;9.59;118.99
66726;HTU21D;53638;51.062;5.804;2022-11-23T05:24:42;9.59;118.99
66726;HTU21D;53638;51.062;5.804;2022-11-23T05:27:13;9.57;118.99
66726;HTU21D;53638;51.062;5.804;2022-11-23T05:29:39;9.56;118.99
66726;HTU21D;53638;51.062;5.804;2022-11-23T05:32:06;9.54;118.99
66726;HTU21D;53638;51.062;5.804;2022-11-23T05:34:32;9.53;118.99
66726;HTU21D;53638;51.062;5.804;2022-11-23T05:36:59;9.52;118.99
66726;HTU21D;53638;51.062;5.804;2022-11-23T05:39:25;9.54;118.99
66726;HTU21D;53638;51.062;5.804;2022-11-23T05:41:52;9.46;118.99
66726;HTU21D;53638;51.062;5.804;2022-11-23T05:44:28;9.41;118.99
66726;HTU21D;53638;51.062;5.804;2022-11-23T05:46:54;9.40;118.99
66726;HTU21D;53638;51.062;5.804;2022-11-23T05:49:21;9.39;118.99
66726;HTU21D;53638;51.062;5.804;2022-11-23T05:51:47;9.42;118.99
66726;HTU21D;53638;51.062;5.804;2022-11-23T05:54:13;9.45;118.99
66726;HTU21D;53638;51.062;5.804;2022-11-23T05:56:44;9.48;118.99
66726;HTU21D;53638;51.062;5.804;2022-11-23T05:59:14;9.51;118.99
66726;HTU21D;53638;51.062;5.804;2022-11-23T06:01:43;9.54;118.99
66726;HTU21D;53638;51.062;5.804;2022-11-23T06:04:12;9.53;118.99
66726;HTU21D;53638;51.062;5.804;2022-11-23T06:06:42;9.54;118.99
66726;HTU21D;53638;51.062;5.804;2022-11-23T06:09:09;9.54;118.99
66726;HTU21D;53638;51.062;5.804;2022-11-23T06:11:37;9.57;118.99
66726;HTU21D;53638;51.062;5.804;2022-11-23T06:14:09;9.57;118.99
66726;HTU21D;53638;51.062;5.804;2022-11-23T06:16:35;9.56;118.99
66726;HTU21D;53638;51.062;5.804;2022-11-23T06:19:13;9.54;118.99
66726;HTU21D;53638;51.062;5.804;2022-11-23T06:21:40;9.51;118.99
66726;HTU21D;53638;51.062;5.804;2022-11-23T06:24:07;9.48;118.99
66726;HTU21D;53638;51.062;5.804;2022-11-23T06:26:34;9.47;118.99
66726;HTU21D;53638;51.062;5.804;2022-11-23T06:29:00;9.39;118.99
66726;HTU21D;53638;51.062;5.804;2022-11-23T06:31:27;9.34;118.99
66726;HTU21D;53638;51.062;5.804;2022-11-23T06:33:53;9.26;118.99
66726;HTU21D;53638;51.062;5.804;2022-11-23T06:36:19;9.24;118.99
66726;HTU21D;53638;51.062;5.804;2022-11-23T06:38:49;9.16;118.99
66726;HTU21D;53638;51.062;5.804;2022-11-23T06:41:20;9.24;118.99
66726;HTU21D;53638;51.062;5.804;2022-11-23T06:43:46;9.08;118.99
66726;HTU21D;53638;51.062;5.804;2022-11-23T06:46:19;9.07;118.99
66726;HTU21D;53638;51.062;5.804;2022-11-23T06:48:46;9.00;118.99
66726;HTU21D;53638;51.062;5.804;2022-11-23T06:51:14;8.95;118.99
66726;HTU21D;53638;51.062;5.804;2022-11-23T06:53:41;8.90;118.99
66726;HTU21D;53638;51.062;5.804;2022-11-23T06:56:09;8.88;118.99
66726;HTU21D;53638;51.062;5.804;2022-11-23T06:58:35;8.85;118.99
66726;HTU21D;53638;51.062;5.804;2022-11-23T07:01:06;8.82;118.99
66726;HTU21D;53638;51.062;5.804;2022-11-23T07:03:40;8.77;118.99
66726;HTU21D;53638;51.062;5.804;2022-11-23T07:06:17;8.74;118.99
66726;HTU21D;53638;51.062;5.804;2022-11-23T07:08:44;8.68;118.99
66726;HTU21D;53638;51.062;5.804;2022-11-23T07:11:26;8.66;118.99
66726;HTU21D;53638;51.062;5.804;2022-11-23T07:13:52;8.62;118.99
66726;HTU21D;53638;51.062;5.804;2022-11-23T07:16:18;8.60;118.99
66726;HTU21D;53638;51.062;5.804;2022-11-23T07:18:43;8.59;118.99
66726;HTU21D;53638;51.062;5.804;2022-11-23T07:21:09;8.57;118.99
66726;HTU21D;53638;51.062;5.804;2022-11-23T07:23:35;8.55;118.99
66726;HTU21D;53638;51.062;5.804;2022-11-23T07:26:06;8.57;118.99
66726;HTU21D;53638;51.062;5.804;2022-11-23T07:28:32;8.62;118.99
66726;HTU21D;53638;51.062;5.804;2022-11-23T07:30:58;8.62;118.99
66726;HTU21D;53638;51.062;5.804;2022-11-23T07:33:24;8.62;118.99
66726;HTU21D;53638;51.062;5.804;2022-11-23T07:35:50;8.65;118.99
66726;HTU21D;53638;51.062;5.804;2022-11-23T07:38:16;8.74;118.99
66726;HTU21D;53638;51.062;5.804;2022-11-23T07:40:42;8.74;118.99
66726;HTU21D;53638;51.062;5.804;2022-11-23T07:43:19;8.79;118.99
66726;HTU21D;53638;51.062;5.804;2022-11-23T07:45:48;8.75;118.99
66726;HTU21D;53638;51.062;5.804;2022-11-23T07:48:15;8.79;118.99
66726;HTU21D;53638;51.062;5.804;2022-11-23T07:50:41;8.78;118.99
66726;HTU21D;53638;51.062;5.804;2022-11-23T07:53:07;8.80;118.99
66726;HTU21D;53638;51.062;5.804;2022-11-23T07:55:33;8.81;118.99
66726;HTU21D;53638;51.062;5.804;2022-11-23T07:57:59;8.81;118.99
66726;HTU21D;53638;51.062;5.804;2022-11-23T08:00:27;8.88;118.99
66726;HTU21D;53638;51.062;5.804;2022-11-23T08:02:53;8.80;118.99
66726;HTU21D;53638;51.062;5.804;2022-11-23T08:05:19;8.80;118.99
66726;HTU21D;53638;51.062;5.804;2022-11-23T08:07:45;8.81;118.99
66726;HTU21D;53638;51.062;5.804;2022-11-23T08:10:12;8.81;118.99
66726;HTU21D;53638;51.062;5.804;2022-11-23T08:12:38;8.85;118.99
66726;HTU21D;53638;51.062;5.804;2022-11-23T08:15:04;8.86;118.99
66726;HTU21D;53638;51.062;5.804;2022-11-23T08:17:31;8.89;118.99
66726;HTU21D;53638;51.062;5.804;2022-11-23T08:19:56;8.92;118.99
66726;HTU21D;53638;51.062;5.804;2022-11-23T08:22:22;8.91;118.99
66726;HTU21D;53638;51.062;5.804;2022-11-23T08:24:48;8.95;118.99
66726;HTU21D;53638;51.062;5.804;2022-11-23T08:27:14;8.96;118.99
66726;HTU21D;53638;51.062;5.804;2022-11-23T08:29:40;8.94;118.99
66726;HTU21D;53638;51.062;5.804;2022-11-23T08:32:06;8.96;118.99
66726;HTU21D;53638;51.062;5.804;2022-11-23T08:34:32;8.96;118.99
66726;HTU21D;53638;51.062;5.804;2022-11-23T08:36:58;8.97;118.99
66726;HTU21D;53638;51.062;5.804;2022-11-23T08:39:24;9.00;118.99
66726;HTU21D;53638;51.062;5.804;2022-11-23T08:41:50;9.03;118.99
66726;HTU21D;53638;51.062;5.804;2022-11-23T08:44:16;9.03;118.99
66726;HTU21D;53638;51.062;5.804;2022-11-23T08:46:41;9.04;118.99
66726;HTU21D;53638;51.062;5.804;2022-11-23T08:49:07;9.08;118.99
66726;HTU21D;53638;51.062;5.804;2022-11-23T08:51:34;9.12;118.99
66726;HTU21D;53638;51.062;5.804;2022-11-23T08:54:00;9.15;118.99
66726;HTU21D;53638;51.062;5.804;2022-11-23T08:56:26;9.20;118.99
66726;HTU21D;53638;51.062;5.804;2022-11-23T08:58:52;9.19;118.99
66726;HTU21D;53638;51.062;5.804;2022-11-23T09:01:18;9.19;118.99
66726;HTU21D;53638;51.062;5.804;2022-11-23T09:03:44;9.20;118.99
66726;HTU21D;53638;51.062;5.804;2022-11-23T09:06:10;9.22;118.99
66726;HTU21D;53638;51.062;5.804;2022-11-23T09:08:37;9.30;118.99
66726;HTU21D;53638;51.062;5.804;2022-11-23T09:11:06;9.29;118.99
66726;HTU21D;53638;51.062;5.804;2022-11-23T09:13:34;9.44;118.99
66726;HTU21D;53638;51.062;5.804;2022-11-23T09:16:03;9.47;118.99
66726;HTU21D;53638;51.062;5.804;2022-11-23T09:18:29;9.47;118.99
66726;HTU21D;53638;51.062;5.804;2022-11-23T09:20:56;9.49;118.99
66726;HTU21D;53638;51.062;5.804;2022-11-23T09:23:23;9.47;118.99
66726;HTU21D;53638;51.062;5.804;2022-11-23T09:25:48;9.59;118.99
66726;HTU21D;53638;51.062;5.804;2022-11-23T09:28:16;9.63;118.99
66726;HTU21D;53638;51.062;5.804;2022-11-23T09:30:45;9.66;118.99
66726;HTU21D;53638;51.062;5.804;2022-11-23T09:33:12;9.67;118.99
66726;HTU21D;53638;51.062;5.804;2022-11-23T09:35:39;9.72;118.99
66726;HTU21D;53638;51.062;5.804;2022-11-23T09:38:06;9.78;118.99
66726;HTU21D;53638;51.062;5.804;2022-11-23T09:40:36;9.79;118.99
66726;HTU21D;53638;51.062;5.804;2022-11-23T09:45:55;9.96;118.99
66726;HTU21D;53638;51.062;5.804;2022-11-23T09:48:34;10.01;118.99
66726;HTU21D;53638;51.062;5.804;2022-11-23T09:56:21;10.22;118.99
66726;HTU21D;53638;51.062;5.804;2022-11-23T09:58:54;10.28;118.99
66726;HTU21D;53638;51.062;5.804;2022-11-23T10:01:21;11.00;118.99
66726;HTU21D;53638;51.062;5.804;2022-11-23T10:03:47;12.35;118.99
66726;HTU21D;53638;51.062;5.804;2022-11-23T10:06:21;13.71;118.99
66726;HTU21D;53638;51.062;5.804;2022-11-23T10:11:40;14.62;109.33
66726;HTU21D;53638;51.062;5.804;2022-11-23T10:16:58;15.37;108.62
66726;HTU21D;53638;51.062;5.804;2022-11-23T10:22:11;15.90;101.88
66726;HTU21D;53638;51.062;5.804;2022-11-23T10:24:45;15.75;102.67
66726;HTU21D;53638;51.062;5.804;2022-11-23T10:27:17;15.91;99.65
66726;HTU21D;53638;51.062;5.804;2022-11-23T10:29:44;16.08;101.81
66726;HTU21D;53638;51.062;5.804;2022-11-23T10:32:46;16.56;98.91
66726;HTU21D;53638;51.062;5.804;2022-11-23T10:35:15;16.67;96.64
66726;HTU21D;53638;51.062;5.804;2022-11-23T10:37:42;16.71;96.78
66726;HTU21D;53638;51.062;5.804;2022-11-23T10:40:17;16.50;94.50
66726;HTU21D;53638;51.062;5.804;2022-11-23T10:42:52;16.66;96.13
66726;HTU21D;53638;51.062;5.804;2022-11-23T10:45:23;16.86;95.80
66726;HTU21D;53638;51.062;5.804;2022-11-23T10:47:55;17.10;95.05
66726;HTU21D;53638;51.062;5.804;2022-11-23T10:50:27;16.86;92.77
66726;HTU21D;53638;51.062;5.804;2022-11-23T10:52:59;16.43;94.31
66726;HTU21D;53638;51.062;5.804;2022-11-23T10:55:32;16.64;97.46
66726;HTU21D;53638;51.062;5.804;2022-11-23T10:57:59;17.69;95.82
66726;HTU21D;53638;51.062;5.804;2022-11-23T11:00:27;18.17;90.54
66726;HTU21D;53638;51.062;5.804;2022-11-23T11:02:56;18.04;90.15
66726;HTU21D;53638;51.062;5.804;2022-11-23T11:05:25;18.27;93.01
66726;HTU21D;53638;51.062;5.804;2022-11-23T11:07:54;18.44;90.76
66726;HTU21D;53638;51.062;5.804;2022-11-23T11:10:39;18.36;91.42
66726;HTU21D;53638;51.062;5.804;2022-11-23T11:13:25;18.54;88.00
66726;HTU21D;53638;51.062;5.804;2022-11-23T11:15:59;18.99;91.78
66726;HTU21D;53638;51.062;5.804;2022-11-23T11:18:30;19.44;87.46
66726;HTU21D;53638;51.062;5.804;2022-11-23T11:21:00;19.77;86.85
66726;HTU21D;53638;51.062;5.804;2022-11-23T11:23:28;19.32;82.84
66726;HTU21D;53638;51.062;5.804;2022-11-23T11:26:05;18.13;85.93
66726;HTU21D;53638;51.062;5.804;2022-11-23T11:28:42;17.03;89.38
66726;HTU21D;53638;51.062;5.804;2022-11-23T11:31:29;16.20;91.82
66726;HTU21D;53638;51.062;5.804;2022-11-23T11:34:03;15.33;92.28
66726;HTU21D;53638;51.062;5.804;2022-11-23T11:36:43;14.64;95.43
66726;HTU21D;53638;51.062;5.804;2022-11-23T11:39:18;14.19;97.32
66726;HTU21D;53638;51.062;5.804;2022-11-23T11:41:50;13.81;98.43
66726;HTU21D;53638;51.062;5.804;2022-11-23T11:44:21;13.59;99.83
66726;HTU21D;53638;51.062;5.804;2022-11-23T11:46:56;13.44;101.05
66726;HTU21D;53638;51.062;5.804;2022-11-23T11:49:31;13.38;100.52
66726;HTU21D;53638;51.062;5.804;2022-11-23T11:52:07;13.39;99.79
66726;HTU21D;53638;51.062;5.804;2022-11-23T11:54:44;13.39;100.14
66726;HTU21D;53638;51.062;5.804;2022-11-23T11:57:21;13.25;100.14
66726;HTU21D;53638;51.062;5.804;2022-11-23T11:59:55;13.03;100.49
66726;HTU21D;53638;51.062;5.804;2022-11-23T12:02:23;12.89;102.36
66726;HTU21D;53638;51.062;5.804;2022-11-23T12:05:06;13.03;101.96
66726;HTU21D;53638;51.062;5.804;2022-11-23T12:07:43;12.97;102.44
66726;HTU21D;53638;51.062;5.804;2022-11-23T12:12:39;12.93;103.23
66726;HTU21D;53638;51.062;5.804;2022-11-23T12:15:16;12.90;102.81
66726;HTU21D;53638;51.062;5.804;2022-11-23T12:18:08;12.85;102.98
66726;HTU21D;53638;51.062;5.804;2022-11-23T12:20:45;12.85;103.28
66726;HTU21D;53638;51.062;5.804;2022-11-23T12:23:22;12.84;104.59
66726;HTU21D;53638;51.062;5.804;2022-11-23T12:26:08;12.96;104.01
66726;HTU21D;53638;51.062;5.804;2022-11-23T12:28:52;12.84;103.90
66726;HTU21D;53638;51.062;5.804;2022-11-23T12:31:33;12.86;104.13
66726;HTU21D;53638;51.062;5.804;2022-11-23T12:34:15;12.96;104.31
66726;HTU21D;53638;51.062;5.804;2022-11-23T12:37:21;12.90;104.62
66726;HTU21D;53638;51.062;5.804;2022-11-23T12:40:02;12.92;104.02
66726;HTU21D;53638;51.062;5.804;2022-11-23T12:42:41;12.93;103.44
66726;HTU21D;53638;51.062;5.804;2022-11-23T12:47:52;12.77;103.10
66726;HTU21D;53638;51.062;5.804;2022-11-23T12:50:53;12.74;104.45
66726;HTU21D;53638;51.062;5.804;2022-11-23T12:53:52;12.70;104.40
66726;HTU21D;53638;51.062;5.804;2022-11-23T12:59:10;12.75;104.23
66726;HTU21D;53638;51.062;5.804;2022-11-23T13:01:45;12.64;105.02
66726;HTU21D;53638;51.062;5.804;2022-11-23T13:07:16;12.66;105.76
66726;HTU21D;53638;51.062;5.804;2022-11-23T13:12:50;12.53;106.02
66726;HTU21D;53638;51.062;5.804;2022-11-23T13:18:12;12.51;106.65
66726;HTU21D;53638;51.062;5.804;2022-11-23T13:21:04;12.44;106.50
66726;HTU21D;53638;51.062;5.804;2022-11-23T13:23:36;12.44;107.60
66726;HTU21D;53638;51.062;5.804;2022-11-23T13:28:40;12.31;108.04
66726;HTU21D;53638;51.062;5.804;2022-11-23T13:33:41;12.22;108.95
66726;HTU21D;53638;51.062;5.804;2022-11-23T13:36:10;12.22;109.63
66726;HTU21D;53638;51.062;5.804;2022-11-23T13:38:39;12.25;110.08
66726;HTU21D;53638;51.062;5.804;2022-11-23T13:44:18;12.22;110.80
66726;HTU21D;53638;51.062;5.804;2022-11-23T13:49:39;12.25;110.23
66726;HTU21D;53638;51.062;5.804;2022-11-23T13:55:14;12.20;111.87
66726;HTU21D;53638;51.062;5.804;2022-11-23T13:57:45;12.26;114.70
66726;HTU21D;53638;51.062;5.804;2022-11-23T14:00:51;12.05;116.24
66726;HTU21D;53638;51.062;5.804;2022-11-23T14:06:14;11.89;118.07
66726;HTU21D;53638;51.062;5.804;2022-11-23T14:08:43;11.62;118.99
66726;HTU21D;53638;51.062;5.804;2022-11-23T14:11:12;11.22;118.99
66726;HTU21D;53638;51.062;5.804;2022-11-23T14:13:52;10.84;118.99
66726;HTU21D;53638;51.062;5.804;2022-11-23T14:16:45;10.66;118.99
66726;HTU21D;53638;51.062;5.804;2022-11-23T14:22:26;10.43;118.99
66726;HTU21D;53638;51.062;5.804;2022-11-23T14:25:15;10.05;118.99
66726;HTU21D;53638;51.062;5.804;2022-11-23T14:30:25;9.47;118.99
66726;HTU21D;53638;51.062;5.804;2022-11-23T14:35:30;9.24;118.99
66726;HTU21D;53638;51.062;5.804;2022-11-23T14:41:05;9.12;118.99
66726;HTU21D;53638;51.062;5.804;2022-11-23T14:43:34;9.04;118.99
66726;HTU21D;53638;51.062;5.804;2022-11-23T14:46:03;8.91;118.99
66726;HTU21D;53638;51.062;5.804;2022-11-23T14:48:34;8.83;118.99
66726;HTU21D;53638;51.062;5.804;2022-11-23T14:51:10;8.81;118.99
66726;HTU21D;53638;51.062;5.804;2022-11-23T14:53:42;8.76;118.99
66726;HTU21D;53638;51.062;5.804;2022-11-23T14:58:49;8.87;118.99
66726;HTU21D;53638;51.062;5.804;2022-11-23T15:01:21;8.83;118.99
66726;HTU21D;53638;51.062;5.804;2022-11-23T15:04:07;8.78;118.99
66726;HTU21D;53638;51.062;5.804;2022-11-23T15:06:40;8.77;118.99
66726;HTU21D;53638;51.062;5.804;2022-11-23T15:09:18;8.81;118.99
66726;HTU21D;53638;51.062;5.804;2022-11-23T15:11:47;8.85;118.99
66726;HTU21D;53638;51.062;5.804;2022-11-23T15:14:18;8.92;118.99
66726;HTU21D;53638;51.062;5.804;2022-11-23T15:16:44;8.93;118.99
66726;HTU21D;53638;51.062;5.804;2022-11-23T15:19:17;8.94;118.99
66726;HTU21D;53638;51.062;5.804;2022-11-23T15:21:44;8.93;118.99
66726;HTU21D;53638;51.062;5.804;2022-11-23T15:24:39;8.93;118.99
66726;HTU21D;53638;51.062;5.804;2022-11-23T16:36:57;8.30;118.99
66726;HTU21D;53638;51.062;5.804;2022-11-23T16:40:30;8.26;118.99
66726;HTU21D;53638;51.062;5.804;2022-11-23T16:43:53;8.24;118.99
66726;HTU21D;53638;51.062;5.804;2022-11-23T16:46:25;8.20;118.99
66726;HTU21D;53638;51.062;5.804;2022-11-23T16:48:51;8.18;118.99
66726;HTU21D;53638;51.062;5.804;2022-11-23T16:51:19;8.16;118.99
66726;HTU21D;53638;51.062;5.804;2022-11-23T16:53:46;8.17;118.99
66726;HTU21D;53638;51.062;5.804;2022-11-23T16:56:18;8.17;118.99
66726;HTU21D;53638;51.062;5.804;2022-11-23T16:58:44;8.19;118.99
66726;HTU21D;53638;51.062;5.804;2022-11-23T17:01:19;8.20;118.99
66726;HTU21D;53638;51.062;5.804;2022-11-23T17:03:46;8.16;118.99
66726;HTU21D;53638;51.062;5.804;2022-11-23T17:06:13;8.16;118.99
66726;HTU21D;53638;51.062;5.804;2022-11-23T17:08:41;8.19;118.99
66726;HTU21D;53638;51.062;5.804;2022-11-23T17:11:13;8.18;118.99
66726;HTU21D;53638;51.062;5.804;2022-11-23T17:13:40;8.18;118.99
66726;HTU21D;53638;51.062;5.804;2022-11-23T17:16:13;8.21;118.99
66726;HTU21D;53638;51.062;5.804;2022-11-23T17:18:40;8.26;118.99
66726;HTU21D;53638;51.062;5.804;2022-11-23T17:21:06;8.27;118.99
66726;HTU21D;53638;51.062;5.804;2022-11-23T17:23:32;8.29;118.99
66726;HTU21D;53638;51.062;5.804;2022-11-23T17:25:58;8.31;118.99
66726;HTU21D;53638;51.062;5.804;2022-11-23T17:28:24;8.31;118.99
66726;HTU21D;53638;51.062;5.804;2022-11-23T17:30:52;8.28;118.99
66726;HTU21D;53638;51.062;5.804;2022-11-23T17:33:18;8.28;118.99
66726;HTU21D;53638;51.062;5.804;2022-11-23T17:35:44;8.22;118.99
66726;HTU21D;53638;51.062;5.804;2022-11-23T17:38:14;8.19;118.99
66726;HTU21D;53638;51.062;5.804;2022-11-23T17:40:41;8.15;118.99
66726;HTU21D;53638;51.062;5.804;2022-11-23T17:43:12;8.16;118.99
66726;HTU21D;53638;51.062;5.804;2022-11-23T17:45:39;8.15;118.99
66726;HTU21D;53638;51.062;5.804;2022-11-23T17:48:05;8.12;118.99
66726;HTU21D;53638;51.062;5.804;2022-11-23T17:50:31;8.08;118.99
66726;HTU21D;53638;51.062;5.804;2022-11-23T17:52:57;8.06;118.99
66726;HTU21D;53638;51.062;5.804;2022-11-23T17:55:22;8.02;118.99